ANA404 RJSK-RJTT
Flight info
| Callsign | ANA404 |
|---|---|
| Flight time | 0h 47m |
| Altitude | 36000 |
| Route | YTE Y32 RUBIS/N0466F380 Y10 GODIN |
| Aircraft | B738/M-SDE2E3FGHIRWXY/LB1 |
Departure
| Time | 2026-04-24 16:16 |
|---|---|
| Airport | Akita Airport (RJSK) |
Arrival
| Time | 2026-04-24 17:03 |
|---|---|
| Airport | Tokyo Haneda International Airport (RJTT) |
| Time | Latitude | Longitude | Altitude | Speed | Heading |
|---|---|---|---|---|---|
| 2026-04-24 15:53 | 39.61238 | 140.22002 | 311 ft | 0 kts | 183° |
| 2026-04-24 16:06 | 39.61267 | 140.21974 | 309 ft | 4 kts | 98° |
| 2026-04-24 16:06 | 39.61269 | 140.21958 | 309 ft | 1 kts | 97° |
| 2026-04-24 16:06 | 39.61269 | 140.21957 | 309 ft | 0 kts | 97° |
| 2026-04-24 16:11 | 39.61270 | 140.21962 | 311 ft | 2 kts | 81° |
| 2026-04-24 16:11 | 39.61292 | 140.21986 | 310 ft | 7 kts | 31° |
| 2026-04-24 16:11 | 39.61357 | 140.22028 | 311 ft | 13 kts | 19° |
| 2026-04-24 16:12 | 39.61370 | 140.22253 | 313 ft | 18 kts | 102° |
| 2026-04-24 16:12 | 39.61348 | 140.22416 | 315 ft | 17 kts | 97° |
| 2026-04-24 16:12 | 39.61324 | 140.22684 | 317 ft | 14 kts | 98° |
| 2026-04-24 16:13 | 39.61312 | 140.22805 | 318 ft | 13 kts | 96° |
| 2026-04-24 16:13 | 39.61294 | 140.23037 | 320 ft | 13 kts | 96° |
| 2026-04-24 16:14 | 39.61283 | 140.23244 | 321 ft | 9 kts | 71° |
| 2026-04-24 16:14 | 39.61327 | 140.23285 | 322 ft | 7 kts | 6° |
| 2026-04-24 16:14 | 39.61360 | 140.23289 | 322 ft | 2 kts | 5° |
| 2026-04-24 16:15 | 39.61378 | 140.23291 | 320 ft | 6 kts | 5° |
| 2026-04-24 16:15 | 39.61443 | 140.23218 | 321 ft | 8 kts | 274° |
| 2026-04-24 16:16 | 39.61591 | 140.21546 | 336 ft | 174 kts | 276° |
| 2026-04-24 16:16 | 39.61728 | 140.19926 | 1293 ft | 182 kts | 272° |
| 2026-04-24 16:17 | 39.58733 | 140.16656 | 2857 ft | 245 kts | 172° |
| 2026-04-24 16:17 | 39.55470 | 140.17936 | 4380 ft | 256 kts | 164° |
| 2026-04-24 16:18 | 39.51695 | 140.18954 | 5680 ft | 291 kts | 172° |
| 2026-04-24 16:18 | 39.47718 | 140.19578 | 7662 ft | 289 kts | 176° |
| 2026-04-24 16:18 | 39.45707 | 140.19817 | 8034 ft | 293 kts | 176° |
| 2026-04-24 16:19 | 39.41591 | 140.20318 | 9783 ft | 303 kts | 177° |
| 2026-04-24 16:19 | 39.39464 | 140.20589 | 10526 ft | 314 kts | 177° |
| 2026-04-24 16:20 | 39.34747 | 140.21196 | 10954 ft | 367 kts | 176° |
| 2026-04-24 16:20 | 39.29633 | 140.23182 | 11969 ft | 397 kts | 158° |
| 2026-04-24 16:20 | 39.27099 | 140.24640 | 12763 ft | 400 kts | 158° |
| 2026-04-24 16:21 | 39.21948 | 140.27542 | 14299 ft | 409 kts | 159° |
| 2026-04-24 16:21 | 39.19319 | 140.28986 | 14965 ft | 413 kts | 160° |
| 2026-04-24 16:21 | 39.16692 | 140.30415 | 15621 ft | 418 kts | 160° |
| 2026-04-24 16:22 | 39.14001 | 140.31874 | 16286 ft | 422 kts | 160° |
| 2026-04-24 16:22 | 39.08499 | 140.34691 | 17575 ft | 427 kts | 170° |
| 2026-04-24 16:22 | 39.05572 | 140.34998 | 18210 ft | 421 kts | 186° |
| 2026-04-24 16:23 | 39.02628 | 140.34947 | 18828 ft | 425 kts | 185° |
| 2026-04-24 16:23 | 38.99663 | 140.34939 | 19407 ft | 428 kts | 185° |
| 2026-04-24 16:23 | 38.96680 | 140.34957 | 19981 ft | 430 kts | 185° |
| 2026-04-24 16:24 | 38.90656 | 140.35034 | 21109 ft | 435 kts | 185° |
| 2026-04-24 16:24 | 38.87660 | 140.35080 | 21675 ft | 437 kts | 185° |
| 2026-04-24 16:24 | 38.84606 | 140.35128 | 22218 ft | 440 kts | 185° |
| 2026-04-24 16:24 | 38.81534 | 140.35174 | 22739 ft | 443 kts | 185° |
| 2026-04-24 16:25 | 38.78444 | 140.35220 | 23250 ft | 446 kts | 185° |
| 2026-04-24 16:25 | 38.75334 | 140.35266 | 23752 ft | 448 kts | 185° |
| 2026-04-24 16:25 | 38.72208 | 140.35312 | 24165 ft | 450 kts | 185° |
| 2026-04-24 16:26 | 38.65940 | 140.35406 | 25132 ft | 451 kts | 185° |
| 2026-04-24 16:26 | 38.62840 | 140.35451 | 25532 ft | 452 kts | 185° |
| 2026-04-24 16:26 | 38.56524 | 140.35542 | 26299 ft | 456 kts | 185° |
| 2026-04-24 16:27 | 38.53350 | 140.35588 | 26682 ft | 457 kts | 186° |
| 2026-04-24 16:27 | 38.50168 | 140.35635 | 27083 ft | 458 kts | 186° |
| 2026-04-24 16:27 | 38.48056 | 140.35666 | 27342 ft | 458 kts | 186° |
| 2026-04-24 16:27 | 38.44864 | 140.35713 | 27699 ft | 460 kts | 186° |
| 2026-04-24 16:28 | 38.41660 | 140.35759 | 28034 ft | 461 kts | 186° |
| 2026-04-24 16:28 | 38.38437 | 140.35964 | 28403 ft | 470 kts | 178° |
| 2026-04-24 16:28 | 38.31145 | 140.39068 | 29715 ft | 472 kts | 168° |
| 2026-04-24 16:29 | 38.28074 | 140.40475 | 30289 ft | 468 kts | 168° |
| 2026-04-24 16:29 | 38.26040 | 140.41380 | 30544 ft | 467 kts | 169° |
| 2026-04-24 16:29 | 38.18861 | 140.44486 | 31312 ft | 466 kts | 170° |
| 2026-04-24 16:30 | 38.13777 | 140.46681 | 32029 ft | 462 kts | 171° |
| 2026-04-24 16:30 | 38.10735 | 140.47998 | 32200 ft | 464 kts | 171° |
| 2026-04-24 16:30 | 38.06674 | 140.49753 | 32209 ft | 465 kts | 171° |
| 2026-04-24 16:31 | 38.01562 | 140.51971 | 32194 ft | 462 kts | 171° |
| 2026-04-24 16:31 | 37.95541 | 140.54576 | 32211 ft | 459 kts | 171° |
| 2026-04-24 16:32 | 37.89502 | 140.57179 | 32210 ft | 458 kts | 171° |
| 2026-04-24 16:32 | 37.83472 | 140.59774 | 32209 ft | 457 kts | 171° |
| 2026-04-24 16:33 | 37.77474 | 140.62175 | 32207 ft | 447 kts | 179° |
| 2026-04-24 16:33 | 37.74438 | 140.62619 | 32221 ft | 434 kts | 188° |
| 2026-04-24 16:33 | 37.71458 | 140.62501 | 32205 ft | 425 kts | 195° |
| 2026-04-24 16:34 | 37.65778 | 140.60985 | 32205 ft | 417 kts | 202° |
| 2026-04-24 16:34 | 37.60121 | 140.59301 | 32210 ft | 419 kts | 202° |
| 2026-04-24 16:35 | 37.54463 | 140.57658 | 32204 ft | 421 kts | 202° |
| 2026-04-24 16:35 | 37.48757 | 140.56025 | 32191 ft | 421 kts | 202° |
| 2026-04-24 16:36 | 37.43048 | 140.54397 | 32205 ft | 420 kts | 202° |
| 2026-04-24 16:36 | 37.37356 | 140.52775 | 32210 ft | 419 kts | 202° |
| 2026-04-24 16:37 | 37.31673 | 140.51156 | 32209 ft | 419 kts | 202° |
| 2026-04-24 16:37 | 37.26029 | 140.49551 | 32136 ft | 417 kts | 202° |
| 2026-04-24 16:38 | 37.20387 | 140.47933 | 32149 ft | 415 kts | 203° |
| 2026-04-24 16:38 | 37.14771 | 140.46325 | 32168 ft | 414 kts | 203° |
| 2026-04-24 16:39 | 37.09155 | 140.44739 | 32167 ft | 413 kts | 203° |
| 2026-04-24 16:39 | 37.03583 | 140.43169 | 32165 ft | 412 kts | 203° |
| 2026-04-24 16:40 | 36.97992 | 140.41591 | 32160 ft | 411 kts | 203° |
| 2026-04-24 16:40 | 36.92415 | 140.40021 | 32164 ft | 411 kts | 203° |
| 2026-04-24 16:41 | 36.89624 | 140.39238 | 31839 ft | 414 kts | 203° |
| 2026-04-24 16:41 | 36.86802 | 140.38449 | 31186 ft | 414 kts | 202° |
| 2026-04-24 16:41 | 36.84024 | 140.37677 | 30389 ft | 415 kts | 202° |
| 2026-04-24 16:41 | 36.81202 | 140.36891 | 29270 ft | 417 kts | 201° |
| 2026-04-24 16:42 | 36.78370 | 140.36104 | 27817 ft | 418 kts | 201° |
| 2026-04-24 16:42 | 36.75519 | 140.35309 | 26619 ft | 423 kts | 201° |
| 2026-04-24 16:42 | 36.72624 | 140.34587 | 26028 ft | 421 kts | 198° |
| 2026-04-24 16:42 | 36.69768 | 140.34017 | 25449 ft | 417 kts | 198° |
| 2026-04-24 16:43 | 36.66869 | 140.33448 | 24780 ft | 430 kts | 198° |
| 2026-04-24 16:43 | 36.63900 | 140.32854 | 24032 ft | 430 kts | 197° |
| 2026-04-24 16:43 | 36.60958 | 140.32269 | 23247 ft | 426 kts | 197° |
| 2026-04-24 16:43 | 36.58091 | 140.31697 | 22475 ft | 420 kts | 196° |
| 2026-04-24 16:44 | 36.55225 | 140.31122 | 21759 ft | 415 kts | 195° |
| 2026-04-24 16:44 | 36.52386 | 140.30551 | 21045 ft | 411 kts | 195° |
| 2026-04-24 16:44 | 36.49571 | 140.29984 | 20353 ft | 408 kts | 194° |
| 2026-04-24 16:44 | 36.46774 | 140.29419 | 19669 ft | 407 kts | 194° |
| 2026-04-24 16:45 | 36.43976 | 140.28857 | 18942 ft | 407 kts | 193° |
| 2026-04-24 16:45 | 36.41171 | 140.28293 | 18221 ft | 413 kts | 193° |
| 2026-04-24 16:45 | 36.38297 | 140.27717 | 17357 ft | 421 kts | 192° |
| 2026-04-24 16:45 | 36.35409 | 140.27145 | 16611 ft | 418 kts | 192° |
| 2026-04-24 16:46 | 36.32594 | 140.26590 | 15910 ft | 413 kts | 192° |
| 2026-04-24 16:46 | 36.29776 | 140.26033 | 15227 ft | 408 kts | 192° |
| 2026-04-24 16:46 | 36.26986 | 140.25481 | 14545 ft | 403 kts | 192° |
| 2026-04-24 16:46 | 36.24230 | 140.24935 | 13882 ft | 399 kts | 192° |
| 2026-04-24 16:47 | 36.21502 | 140.24395 | 13151 ft | 396 kts | 192° |
| 2026-04-24 16:47 | 36.18822 | 140.23865 | 12870 ft | 383 kts | 191° |
| 2026-04-24 16:47 | 36.16186 | 140.23341 | 12600 ft | 389 kts | 191° |
| 2026-04-24 16:47 | 36.13491 | 140.22803 | 12296 ft | 396 kts | 191° |
| 2026-04-24 16:48 | 36.10766 | 140.22262 | 11926 ft | 394 kts | 191° |
| 2026-04-24 16:48 | 36.08110 | 140.21736 | 11641 ft | 390 kts | 191° |
| 2026-04-24 16:48 | 36.05464 | 140.21214 | 11347 ft | 378 kts | 191° |
| 2026-04-24 16:48 | 36.02913 | 140.20711 | 11076 ft | 365 kts | 191° |
| 2026-04-24 16:49 | 36.00430 | 140.20356 | 10865 ft | 352 kts | 185° |
| 2026-04-24 16:49 | 35.98051 | 140.20302 | 10678 ft | 333 kts | 182° |
| 2026-04-24 16:49 | 35.95788 | 140.20323 | 10507 ft | 318 kts | 181° |
| 2026-04-24 16:49 | 35.93605 | 140.20341 | 10344 ft | 309 kts | 182° |
| 2026-04-24 16:50 | 35.92195 | 140.20342 | 10242 ft | 304 kts | 182° |
| 2026-04-24 16:50 | 35.89444 | 140.20324 | 10035 ft | 293 kts | 182° |
| 2026-04-24 16:50 | 35.87430 | 140.20300 | 9867 ft | 286 kts | 183° |
| 2026-04-24 16:50 | 35.85465 | 140.20270 | 9693 ft | 279 kts | 183° |
| 2026-04-24 16:51 | 35.83529 | 140.20239 | 9555 ft | 277 kts | 183° |
| 2026-04-24 16:51 | 35.81598 | 140.20206 | 9408 ft | 278 kts | 183° |
| 2026-04-24 16:51 | 35.79664 | 140.20173 | 9276 ft | 278 kts | 183° |
| 2026-04-24 16:51 | 35.77723 | 140.20148 | 9129 ft | 279 kts | 182° |
| 2026-04-24 16:52 | 35.75798 | 140.19973 | 9010 ft | 277 kts | 191° |
| 2026-04-24 16:52 | 35.73924 | 140.19580 | 8872 ft | 277 kts | 193° |
| 2026-04-24 16:52 | 35.72039 | 140.19094 | 8719 ft | 276 kts | 201° |
| 2026-04-24 16:52 | 35.70373 | 140.18040 | 8406 ft | 266 kts | 215° |
| 2026-04-24 16:53 | 35.68820 | 140.16798 | 7893 ft | 267 kts | 216° |
| 2026-04-24 16:53 | 35.67269 | 140.15547 | 7508 ft | 265 kts | 215° |
| 2026-04-24 16:53 | 35.65724 | 140.14317 | 7277 ft | 265 kts | 215° |
| 2026-04-24 16:53 | 35.64178 | 140.13103 | 7103 ft | 264 kts | 214° |
| 2026-04-24 16:54 | 35.62623 | 140.11897 | 6920 ft | 264 kts | 214° |
| 2026-04-24 16:54 | 35.61067 | 140.10699 | 6740 ft | 264 kts | 214° |
| 2026-04-24 16:54 | 35.59531 | 140.09523 | 6537 ft | 264 kts | 213° |
| 2026-04-24 16:54 | 35.57974 | 140.08337 | 6349 ft | 263 kts | 213° |
| 2026-04-24 16:55 | 35.56420 | 140.07155 | 6166 ft | 263 kts | 213° |
| 2026-04-24 16:55 | 35.54857 | 140.05968 | 5904 ft | 266 kts | 213° |
| 2026-04-24 16:55 | 35.53291 | 140.04781 | 5691 ft | 262 kts | 213° |
| 2026-04-24 16:55 | 35.51750 | 140.03616 | 5502 ft | 257 kts | 213° |
| 2026-04-24 16:56 | 35.50242 | 140.02476 | 5317 ft | 253 kts | 213° |
| 2026-04-24 16:56 | 35.48760 | 140.01356 | 5140 ft | 248 kts | 213° |
| 2026-04-24 16:56 | 35.47307 | 140.00258 | 4969 ft | 243 kts | 213° |
| 2026-04-24 16:56 | 35.45883 | 139.99183 | 4820 ft | 237 kts | 213° |
| 2026-04-24 16:57 | 35.44544 | 139.98173 | 4667 ft | 222 kts | 213° |
| 2026-04-24 16:57 | 35.43275 | 139.97217 | 4522 ft | 207 kts | 212° |
| 2026-04-24 16:57 | 35.42057 | 139.96299 | 4435 ft | 205 kts | 212° |
| 2026-04-24 16:57 | 35.40870 | 139.95405 | 4223 ft | 199 kts | 212° |
| 2026-04-24 16:58 | 35.39702 | 139.94482 | 3800 ft | 202 kts | 221° |
| 2026-04-24 16:58 | 35.39038 | 139.93027 | 3436 ft | 195 kts | 271° |
| 2026-04-24 16:58 | 35.39466 | 139.91595 | 3460 ft | 183 kts | 317° |
| 2026-04-24 16:58 | 35.40457 | 139.90540 | 3231 ft | 194 kts | 325° |
| 2026-04-24 16:59 | 35.41519 | 139.89549 | 2958 ft | 194 kts | 327° |
| 2026-04-24 16:59 | 35.42625 | 139.88634 | 2696 ft | 190 kts | 332° |
| 2026-04-24 16:59 | 35.44834 | 139.87030 | 2191 ft | 175 kts | 335° |
| 2026-04-24 17:00 | 35.45848 | 139.86306 | 1951 ft | 163 kts | 336° |
| 2026-04-24 17:00 | 35.47747 | 139.84956 | 1530 ft | 156 kts | 336° |
| 2026-04-24 17:00 | 35.48672 | 139.84294 | 1307 ft | 151 kts | 336° |
| 2026-04-24 17:01 | 35.50456 | 139.83024 | 932 ft | 151 kts | 333° |
| 2026-04-24 17:01 | 35.51360 | 139.82377 | 715 ft | 148 kts | 334° |
| 2026-04-24 17:02 | 35.53080 | 139.81121 | 325 ft | 144 kts | 333° |
| 2026-04-24 17:02 | 35.53938 | 139.80517 | 171 ft | 142 kts | 334° |
| 2026-04-24 17:02 | 35.54786 | 139.79918 | 33 ft | 139 kts | 334° |
| 2026-04-24 17:02 | 35.55520 | 139.79413 | 23 ft | 93 kts | 330° |
| 2026-04-24 17:03 | 35.56118 | 139.78893 | 24 ft | 28 kts | 303° |
| 2026-04-24 17:03 | 35.56137 | 139.78797 | 22 ft | 0 kts | 248° |
| 2026-04-24 17:04 | 35.56136 | 139.78795 | 22 ft | 2 kts | 247° |
| 2026-04-24 17:04 | 35.56089 | 139.78689 | 22 ft | 7 kts | 232° |
| 2026-04-24 17:04 | 35.56048 | 139.78664 | 22 ft | 4 kts | 177° |
| 2026-04-24 17:05 | 35.56030 | 139.78670 | 23 ft | 2 kts | 162° |
| 2026-04-24 17:05 | 35.56016 | 139.78676 | 24 ft | 2 kts | 161° |
| 2026-04-24 17:05 | 35.55992 | 139.78696 | 25 ft | 2 kts | 144° |
| 2026-04-24 17:06 | 35.55980 | 139.78706 | 23 ft | 2 kts | 144° |
| 2026-04-24 17:06 | 35.55937 | 139.78738 | 23 ft | 8 kts | 151° |
| 2026-04-24 17:06 | 35.55880 | 139.78777 | 23 ft | 13 kts | 151° |
| 2026-04-24 17:07 | 35.55826 | 139.78814 | 23 ft | 14 kts | 150° |
| 2026-04-24 17:07 | 35.55717 | 139.78890 | 25 ft | 13 kts | 150° |
| 2026-04-24 17:07 | 35.55565 | 139.78999 | 23 ft | 12 kts | 149° |
| 2026-04-24 17:08 | 35.55418 | 139.79102 | 23 ft | 14 kts | 152° |
| 2026-04-24 17:08 | 35.55323 | 139.79170 | 23 ft | 13 kts | 157° |
| 2026-04-24 17:08 | 35.55246 | 139.79134 | 25 ft | 13 kts | 238° |
| 2026-04-24 17:09 | 35.55166 | 139.78964 | 24 ft | 6 kts | 240° |
| 2026-04-24 17:09 | 35.55162 | 139.78956 | 25 ft | 0 kts | 240° |